Página principal
METAR-TAF:

METAR-TAF

Aeroportos :

Kiana, Alasca, Estados Unidos

latitude: 66-59N, longitude: 160-26W, altura: 46 m

Observação actual do tempo

O boletim foi feito há 1 hora e 4 minutos, às 16:56 UTC
Vento calmo
Temperatura 9°C
Humidade 93%
Pressão 1016 hPa
Visibilidade: 16.1 km
Nuvens fragmentadasa uma altura de 6000 ft
Encobertoa uma altura de 8500 ft

METAR: PAIK 191656Z AUTO 00000KT 10SM BKN060 OVC085 09/08 A3000 RMK AO2 SLP161 T00940078

Hora: 10:00 (18:00 UTC)


TAF: em falta

Observações e previsões do tempo de mais de 4000 aeroportos (mensagens METAR e TAF).

As estações disponíveis são os pontos amarelos e vermelhos sobre o mapa.

Mova o rato sobre o mapa para ver o nome da estação.

Depois clique no ponto para visualizar as observações e previsões meteorológicas.

Para alterar o mapa : clique nos botões verdes com uma cruz preta para aumentar o zoom; no botão verde com uma pitada de zoom; ou nas setas verdes para mapas adjacentes.


METAR-TAF: